createdAt,value
2019-04-29T00:02:21.390Z,14.90
2019-04-29T00:04:51.170Z,14.90
2019-04-29T00:07:20.992Z,15.63
2019-04-29T00:09:50.827Z,24.33
2019-04-29T00:12:21.022Z,19.20
2019-04-29T00:18:31.963Z,20.10
2019-04-29T00:21:01.886Z,18.63
2019-04-29T00:23:31.989Z,18.40
2019-04-29T00:26:01.822Z,13.57
2019-04-29T00:28:31.599Z,15.63
2019-04-29T00:34:10.024Z,15.80
2019-04-29T00:36:47.819Z,17.40
2019-04-29T00:39:35.382Z,18.07
2019-04-29T00:42:14.337Z,16.80
2019-04-29T00:48:15.957Z,20.53
2019-04-29T00:50:45.944Z,21.33
2019-04-29T00:53:15.832Z,16.23
2019-04-29T00:55:45.708Z,16.53
2019-04-29T00:58:15.598Z,16.73
2019-04-29T01:00:45.457Z,16.27
2019-04-29T01:03:15.465Z,14.37
2019-04-29T01:05:45.391Z,14.73
2019-04-29T01:08:15.273Z,17.77
2019-04-29T01:10:45.196Z,15.67
2019-04-29T01:13:14.967Z,13.87
2019-04-29T01:15:44.881Z,16.20
2019-04-29T01:18:14.834Z,18.57
2019-04-29T01:20:44.542Z,18.53
2019-04-29T01:23:14.311Z,18.13
2019-04-29T01:25:45.708Z,16.67
2019-04-29T01:28:40.613Z,16.33
2019-04-29T01:31:17.942Z,18.20
2019-04-29T01:33:49.307Z,16.00
2019-04-29T01:36:33.714Z,13.37
2019-04-29T01:39:05.685Z,14.37
2019-04-29T01:41:54.695Z,18.23
2019-04-29T01:44:25.116Z,16.03
2019-04-29T01:46:54.821Z,14.97
2019-04-29T01:49:24.685Z,17.53
2019-04-29T01:51:54.429Z,18.77
2019-04-29T01:54:24.185Z,23.53
2019-04-29T01:56:53.997Z,17.63
2019-04-29T01:59:23.753Z,15.80
2019-04-29T02:01:53.615Z,16.50
2019-04-29T02:04:23.607Z,17.67
2019-04-29T02:06:53.492Z,17.03
2019-04-29T02:09:29.387Z,15.30
2019-04-29T02:11:59.153Z,16.57
2019-04-29T02:14:29.077Z,15.77
2019-04-29T02:16:58.977Z,18.13
2019-04-29T02:19:28.777Z,16.97
2019-04-29T02:22:26.679Z,17.33
2019-04-29T02:25:01.754Z,9.53
2019-04-29T02:27:31.645Z,16.20
2019-04-29T02:30:01.912Z,22.07
2019-04-29T02:32:31.863Z,12.80
2019-04-29T02:35:01.641Z,14.03
2019-04-29T02:37:35.582Z,18.13
2019-04-29T02:40:23.998Z,21.30
2019-04-29T02:43:08.634Z,16.50
2019-04-29T02:45:38.630Z,21.87
2019-04-29T02:48:08.502Z,14.83
2019-04-29T02:50:38.452Z,25.00
2019-04-29T02:53:08.235Z,20.83
2019-04-29T02:55:42.857Z,26.10
2019-04-29T02:58:19.002Z,20.17
2019-04-29T03:01:13.713Z,55.37
2019-04-29T03:04:03.312Z,71.97
2019-04-29T03:06:33.280Z,96.10
2019-04-29T03:09:03.329Z,34.10
2019-04-29T03:11:33.147Z,34.70
2019-04-29T03:14:03.433Z,54.37
2019-04-29T03:16:33.673Z,65.87
2019-04-29T03:19:08.070Z,46.40
2019-04-29T03:21:43.732Z,36.20
2019-04-29T03:24:13.617Z,51.70
2019-04-29T03:26:43.319Z,43.53
2019-04-29T03:29:25.309Z,65.60
2019-04-29T03:31:56.678Z,50.90
2019-04-29T03:34:26.545Z,33.57
2019-04-29T03:36:56.430Z,53.23
2019-04-29T03:39:26.280Z,51.43
2019-04-29T03:41:56.147Z,30.77
2019-04-29T03:44:26.067Z,33.73
2019-04-29T03:46:56.019Z,88.80
2019-04-29T03:49:26.017Z,82.63
2019-04-29T03:51:56.004Z,81.50
2019-04-29T03:54:26.006Z,52.63
2019-04-29T03:56:55.884Z,63.37
2019-04-29T03:59:25.683Z,56.00
2019-04-29T04:02:04.907Z,69.70
2019-04-29T04:04:59.104Z,35.50
2019-04-29T04:07:50.625Z,25.33
2019-04-29T04:10:20.614Z,68.00
2019-04-29T04:12:50.457Z,81.63
2019-04-29T04:19:04.769Z,72.40
2019-04-29T04:21:34.721Z,51.73
2019-04-29T04:24:04.517Z,63.40
2019-04-29T04:26:34.530Z,71.60
2019-04-29T04:29:04.384Z,48.17
2019-04-29T04:31:34.268Z,114.47
2019-04-29T04:34:04.185Z,95.27
2019-04-29T04:36:34.027Z,48.40
2019-04-29T04:39:04.379Z,31.50
2019-04-29T04:41:34.316Z,51.30
2019-04-29T04:44:04.403Z,46.00
2019-04-29T04:46:34.308Z,51.13
2019-04-29T04:49:04.169Z,49.93
2019-04-29T04:51:34.041Z,82.80
2019-04-29T04:54:03.857Z,82.60
2019-04-29T04:56:33.657Z,66.23
2019-04-29T04:59:03.472Z,64.80
2019-04-29T05:01:33.258Z,109.37
2019-04-29T05:04:03.052Z,46.17
2019-04-29T05:06:32.779Z,67.07
2019-04-29T05:09:03.474Z,86.87
2019-04-29T05:11:33.168Z,47.33
2019-04-29T05:14:03.055Z,26.70
2019-04-29T05:16:32.971Z,60.83
2019-04-29T05:19:02.781Z,38.97
2019-04-29T05:21:32.650Z,108.67
2019-04-29T05:24:02.433Z,70.97
2019-04-29T05:26:32.675Z,26.13
2019-04-29T05:29:02.409Z,54.30
2019-04-29T05:42:15.831Z,30.40
2019-04-29T05:44:48.144Z,37.47
2019-04-29T05:47:25.427Z,16.40
2019-04-29T05:50:16.687Z,30.30
2019-04-29T05:52:55.983Z,35.30
2019-04-29T05:55:25.707Z,13.20
2019-04-29T05:58:11.752Z,28.53
2019-04-29T06:04:16.439Z,39.77
2019-04-29T06:06:47.372Z,34.63
2019-04-29T06:09:18.437Z,13.73
2019-04-29T06:11:48.385Z,27.53
2019-04-29T06:14:18.102Z,42.73
2019-04-29T06:16:48.223Z,18.17
2019-04-29T06:19:18.449Z,21.27
2019-04-29T06:21:48.194Z,19.37
2019-04-29T06:24:18.810Z,19.67
2019-04-29T06:26:48.535Z,21.63
2019-04-29T06:29:18.281Z,20.23
2019-04-29T06:31:48.073Z,20.13
2019-04-29T06:34:18.155Z,18.73
2019-04-29T06:36:48.301Z,25.87
2019-04-29T06:39:18.108Z,21.20
2019-04-29T06:41:47.985Z,13.53
2019-04-29T06:44:17.769Z,12.70
2019-04-29T06:46:50.254Z,17.73
2019-04-29T06:49:19.343Z,14.00
2019-04-29T06:51:49.139Z,21.83
2019-04-29T06:54:18.865Z,22.13
2019-04-29T06:56:48.631Z,26.43
2019-04-29T06:59:18.395Z,19.40
2019-04-29T07:01:48.245Z,23.53
2019-04-29T07:04:18.051Z,21.23
2019-04-29T07:06:57.147Z,23.33
2019-04-29T07:09:19.291Z,16.10
2019-04-29T07:11:49.023Z,21.97
2019-04-29T07:14:18.983Z,20.17
2019-04-29T07:16:48.831Z,18.97
2019-04-29T07:19:22.086Z,18.90
2019-04-29T07:21:53.952Z,25.53
2019-04-29T07:24:25.719Z,19.07
2019-04-29T07:26:57.746Z,24.33
2019-04-29T07:29:32.826Z,22.33
2019-04-29T07:32:09.406Z,19.53
2019-04-29T07:34:39.535Z,17.17
2019-04-29T07:37:12.024Z,16.53
2019-04-29T07:39:44.946Z,20.93
2019-04-29T07:42:15.570Z,24.47
2019-04-29T07:45:04.720Z,15.63
2019-04-29T07:47:38.484Z,15.90
2019-04-29T07:50:11.879Z,22.03
2019-04-29T07:52:45.659Z,20.33
2019-04-29T07:55:26.072Z,16.77
2019-04-29T07:57:59.188Z,19.93
2019-04-29T08:20:09.978Z,17.03
2019-04-29T08:22:39.754Z,13.80
2019-04-29T08:25:09.745Z,17.30
2019-04-29T08:27:43.459Z,13.93
2019-04-29T08:30:12.619Z,16.50
2019-04-29T08:32:43.223Z,18.67
2019-04-29T08:35:13.113Z,14.70
2019-04-29T08:37:42.931Z,16.57
2019-04-29T08:40:16.513Z,14.13
2019-04-29T08:42:49.161Z,18.97
2019-04-29T08:45:30.251Z,14.67
2019-04-29T08:48:00.308Z,15.43
2019-04-29T08:50:30.023Z,17.60
2019-04-29T08:52:59.796Z,13.70
2019-04-29T08:55:31.380Z,14.97
2019-04-29T08:58:01.689Z,14.67
2019-04-29T09:00:31.492Z,16.17
2019-04-29T09:03:01.238Z,16.03
2019-04-29T09:05:31.060Z,17.77
2019-04-29T09:08:00.954Z,16.67
2019-04-29T09:10:33.087Z,16.63
2019-04-29T09:13:02.587Z,13.83
2019-04-29T09:15:32.370Z,16.10
2019-04-29T09:18:02.301Z,17.87
2019-04-29T09:20:32.198Z,13.13
2019-04-29T09:23:07.929Z,13.97
2019-04-29T09:26:02.619Z,11.20
2019-04-29T09:28:28.198Z,19.03
2019-04-29T09:30:57.048Z,13.00
2019-04-29T09:33:26.906Z,14.03
2019-04-29T09:35:56.690Z,11.93
2019-04-29T09:38:26.459Z,10.73
2019-04-29T09:41:02.337Z,9.90
2019-04-29T09:44:04.056Z,10.77
2019-04-29T09:46:34.565Z,11.47
2019-04-29T09:49:04.278Z,10.67
2019-04-29T09:51:34.056Z,7.67
2019-04-29T09:54:04.034Z,8.73
2019-04-29T09:56:34.835Z,8.43
2019-04-29T09:59:31.319Z,8.40
2019-04-29T10:02:20.111Z,7.67
2019-04-29T10:05:17.825Z,6.73
2019-04-29T10:07:47.711Z,10.83
2019-04-29T10:10:17.453Z,10.90
2019-04-29T10:12:47.191Z,9.47
2019-04-29T10:15:19.033Z,7.83
2019-04-29T10:17:56.062Z,8.87
2019-04-29T10:20:32.923Z,8.87
2019-04-29T10:23:02.755Z,8.63
2019-04-29T10:25:32.662Z,8.07
2019-04-29T10:28:02.445Z,8.70
2019-04-29T10:30:32.620Z,6.70
2019-04-29T10:33:02.534Z,7.87
2019-04-29T10:35:32.416Z,6.37
2019-04-29T10:38:03.138Z,8.57
2019-04-29T10:40:50.295Z,8.80
2019-04-29T10:43:39.278Z,6.50
2019-04-29T10:46:26.696Z,7.60
2019-04-29T10:49:05.323Z,7.23
2019-04-29T10:51:35.214Z,7.67
2019-04-29T10:54:05.203Z,6.30
2019-04-29T10:56:35.440Z,7.87
2019-04-29T10:59:09.117Z,8.37
2019-04-29T11:02:39.695Z,8.50
2019-04-29T11:05:29.401Z,7.10
2019-04-29T11:08:10.964Z,8.13
2019-04-29T11:10:41.189Z,8.43
2019-04-29T11:13:10.961Z,7.27
2019-04-29T11:15:40.904Z,10.90
2019-04-29T11:18:10.743Z,11.60
2019-04-29T11:20:40.514Z,8.23
2019-04-29T11:23:35.271Z,8.23
2019-04-29T11:26:24.432Z,8.90
2019-04-29T11:28:55.875Z,9.37
2019-04-29T11:31:25.786Z,6.97
2019-04-29T11:34:15.960Z,8.40
2019-04-29T11:36:44.399Z,12.10
2019-04-29T11:39:15.646Z,9.03
2019-04-29T11:41:45.423Z,13.17
2019-04-29T11:44:15.351Z,8.43
2019-04-29T11:46:48.983Z,10.77
2019-04-29T11:49:18.193Z,8.97
2019-04-29T11:52:08.396Z,6.67
2019-04-29T11:54:21.529Z,7.13
2019-04-29T11:56:51.346Z,7.37
2019-04-29T11:59:33.893Z,9.70
2019-04-29T12:02:33.412Z,8.40
2019-04-29T12:04:59.131Z,9.60
2019-04-29T12:07:32.605Z,9.30
2019-04-29T12:10:02.250Z,8.50
2019-04-29T12:12:32.328Z,7.40
2019-04-29T12:15:27.101Z,8.47
2019-04-29T12:18:15.758Z,8.77
2019-04-29T12:20:56.322Z,8.40
2019-04-29T12:23:26.055Z,7.43
2019-04-29T12:25:58.659Z,7.73
2019-04-29T12:28:27.454Z,6.43
2019-04-29T12:30:59.401Z,8.47
2019-04-29T12:33:36.942Z,7.23
2019-04-29T12:36:09.428Z,7.17
2019-04-29T12:38:56.624Z,6.33
2019-04-29T12:41:49.194Z,9.30
2019-04-29T12:44:35.426Z,6.63
2019-04-29T12:47:26.889Z,6.67
2019-04-29T12:49:55.929Z,7.67
2019-04-29T12:52:25.928Z,7.10
2019-04-29T12:54:55.873Z,7.93
2019-04-29T12:57:25.747Z,7.93
2019-04-29T12:59:55.622Z,5.20
2019-04-29T13:03:01.279Z,5.83
2019-04-29T13:05:58.048Z,8.17
2019-04-29T13:08:24.208Z,9.70
2019-04-29T13:10:56.636Z,7.17
2019-04-29T13:13:28.111Z,6.90
2019-04-29T13:16:10.239Z,5.70
2019-04-29T13:18:48.855Z,8.87
2019-04-29T13:21:19.506Z,7.73
2019-04-29T13:23:59.563Z,6.57
2019-04-29T13:26:27.986Z,8.97
2019-04-29T13:29:00.155Z,8.10
2019-04-29T13:31:37.536Z,6.63
2019-04-29T13:33:56.880Z,8.77
2019-04-29T13:36:27.421Z,5.80
2019-04-29T13:38:57.300Z,9.17
2019-04-29T13:41:27.140Z,6.33
2019-04-29T13:44:04.135Z,6.37
2019-04-29T13:46:51.183Z,7.27
2019-04-29T13:49:40.713Z,5.37
2019-04-29T13:52:10.889Z,6.13
2019-04-29T13:54:42.374Z,5.23
2019-04-29T13:57:15.838Z,8.57
2019-04-29T14:00:05.488Z,7.20
2019-04-29T14:02:38.792Z,5.43
2019-04-29T14:05:09.782Z,6.37
2019-04-29T14:07:39.826Z,6.87
2019-04-29T14:10:10.094Z,7.97
2019-04-29T14:12:48.429Z,7.20
2019-04-29T14:15:13.284Z,5.93
2019-04-29T14:17:43.153Z,5.50
2019-04-29T14:20:15.873Z,6.20
2019-04-29T14:22:44.778Z,6.63
2019-04-29T14:25:15.144Z,7.07
2019-04-29T14:27:45.104Z,5.20
2019-04-29T14:30:17.055Z,8.10
2019-04-29T14:32:49.714Z,9.20
2019-04-29T14:35:48.355Z,6.47
2019-04-29T14:38:18.700Z,7.87
2019-04-29T14:40:48.673Z,7.03
2019-04-29T14:43:57.015Z,6.17
2019-04-29T14:46:38.721Z,9.87
2019-04-29T14:49:15.561Z,7.83
2019-04-29T14:51:45.420Z,7.57
2019-04-29T14:54:15.161Z,11.40
2019-04-29T14:56:44.911Z,9.17
2019-04-29T14:59:14.956Z,9.43
2019-04-29T15:01:59.053Z,11.27
2019-04-29T15:08:09.757Z,12.10
2019-04-29T15:10:40.139Z,9.00
2019-04-29T15:13:20.702Z,10.57
2019-04-29T15:16:05.330Z,11.40
2019-04-29T15:18:49.594Z,10.47
2019-04-29T15:21:32.327Z,13.33
2019-04-29T15:23:54.620Z,12.33
2019-04-29T15:26:24.461Z,12.00
2019-04-29T15:28:54.287Z,9.43
2019-04-29T15:31:28.873Z,11.73
2019-04-29T15:33:58.563Z,9.73
2019-04-29T15:36:30.665Z,11.03
2019-04-29T15:39:09.431Z,13.23
2019-04-29T15:41:33.313Z,8.63
2019-04-29T15:44:07.619Z,11.47
2019-04-29T15:46:45.646Z,9.87
2019-04-29T15:49:05.834Z,10.17
2019-04-29T15:51:35.575Z,12.37
2019-04-29T15:54:09.245Z,10.70
2019-04-29T15:56:38.775Z,10.73
2019-04-29T15:59:10.214Z,11.37
2019-04-29T16:04:15.815Z,12.23
2019-04-29T16:06:59.891Z,15.07
2019-04-29T16:09:51.785Z,12.20
2019-04-29T16:12:20.849Z,11.53
2019-04-29T16:14:50.558Z,11.50
2019-04-29T16:17:20.858Z,11.20
2019-04-29T16:19:50.600Z,13.93
2019-04-29T16:22:22.185Z,14.80
2019-04-29T16:24:59.023Z,16.47
2019-04-29T16:27:25.707Z,16.13
2019-04-29T16:29:55.645Z,14.23
2019-04-29T16:32:32.106Z,15.90
2019-04-29T16:35:02.063Z,18.10
2019-04-29T16:37:34.543Z,12.90
2019-04-29T16:40:05.754Z,14.63
2019-04-29T16:42:45.914Z,16.37
2019-04-29T16:45:15.731Z,14.27
2019-04-29T16:47:47.413Z,13.03
2019-04-29T16:50:17.257Z,15.47
2019-04-29T16:52:47.028Z,15.33
2019-04-29T16:55:16.910Z,16.57
2019-04-29T16:57:46.719Z,19.73
2019-04-29T17:00:18.338Z,17.10
2019-04-29T17:02:48.111Z,15.63
2019-04-29T17:05:17.946Z,15.00
2019-04-29T17:07:48.097Z,14.90
2019-04-29T17:10:27.170Z,19.43
2019-04-29T17:12:57.230Z,15.77
2019-04-29T17:15:27.129Z,16.73
2019-04-29T17:17:57.153Z,14.63
2019-04-29T17:20:27.046Z,13.90
2019-04-29T17:22:56.865Z,16.00
2019-04-29T17:25:26.848Z,15.30
2019-04-29T17:28:24.291Z,10.60
2019-04-29T17:31:18.157Z,10.50
2019-04-29T17:33:52.079Z,9.40
2019-04-29T17:35:13.888Z,10.33
2019-04-29T17:36:25.834Z,11.13
2019-04-29T17:38:55.775Z,10.00
2019-04-29T17:41:25.514Z,9.97
2019-04-29T17:44:20.043Z,8.27
2019-04-29T17:47:13.290Z,9.23
2019-04-29T17:50:02.094Z,9.00
2019-04-29T17:52:31.488Z,10.53
2019-04-29T17:55:18.860Z,10.60
2019-04-29T17:58:21.150Z,9.40
2019-04-29T18:01:05.342Z,10.63
2019-04-29T18:04:03.209Z,8.80
2019-04-29T18:06:37.730Z,8.77
2019-04-29T18:09:29.650Z,12.33
2019-04-29T18:12:04.931Z,10.33
2019-04-29T18:14:40.315Z,10.97
2019-04-29T18:17:07.484Z,11.60
2019-04-29T18:19:55.672Z,12.40
2019-04-29T18:22:38.284Z,13.40
2019-04-29T18:25:30.489Z,11.33
2019-04-29T18:27:53.210Z,13.20
2019-04-29T18:30:35.422Z,14.67
2019-04-29T18:32:56.330Z,14.40
2019-04-29T18:35:29.654Z,13.50
2019-04-29T18:38:12.102Z,13.30
2019-04-29T18:40:44.811Z,13.80
2019-04-29T18:43:19.197Z,14.67
2019-04-29T18:45:55.531Z,15.90
2019-04-29T18:48:21.483Z,19.83
2019-04-29T18:50:50.286Z,18.47
2019-04-29T18:53:20.059Z,17.53
2019-04-29T18:55:49.839Z,16.63
2019-04-29T18:58:20.778Z,14.63
2019-04-29T19:00:53.690Z,14.87
2019-04-29T19:03:35.903Z,13.60
2019-04-29T19:06:10.359Z,15.73
2019-04-29T19:08:37.154Z,15.70
2019-04-29T19:11:07.145Z,14.53
2019-04-29T19:14:28.261Z,14.47
2019-04-29T19:21:02.816Z,13.40
2019-04-29T19:23:37.132Z,13.23
2019-04-29T19:26:22.365Z,15.40
2019-04-29T19:28:53.650Z,12.70
2019-04-29T19:37:00.006Z,15.83
2019-04-29T19:39:30.380Z,13.67
2019-04-29T19:42:00.446Z,13.17
2019-04-29T19:44:33.707Z,16.70
2019-04-29T19:47:25.621Z,16.50
2019-04-29T19:50:03.479Z,16.67
2019-04-29T19:52:38.245Z,12.97
2019-04-29T19:55:33.176Z,17.47
2019-04-29T19:58:07.316Z,14.77
2019-04-29T20:00:38.973Z,18.53
2019-04-29T20:03:23.440Z,12.83
2019-04-29T20:05:52.706Z,13.60
2019-04-29T20:08:46.373Z,15.57
2019-04-29T20:11:01.038Z,15.57
2019-04-29T20:13:31.612Z,15.10
2019-04-29T20:16:25.030Z,13.00
2019-04-29T20:19:16.255Z,15.50
2019-04-29T20:21:41.920Z,19.47
2019-04-29T20:24:15.599Z,18.47
2019-04-29T20:26:46.650Z,16.83
2019-04-29T20:29:16.091Z,14.83
2019-04-29T20:31:51.576Z,16.03
2019-04-29T20:34:24.597Z,15.27
2019-04-29T20:36:55.627Z,19.27
2019-04-29T20:39:26.249Z,15.50
2019-04-29T20:41:56.795Z,16.07
2019-04-29T20:44:28.167Z,14.63
2019-04-29T20:47:16.584Z,16.90
2019-04-29T20:49:30.994Z,14.70
2019-04-29T20:52:20.295Z,18.37
2019-04-29T20:54:52.528Z,14.30
2019-04-29T20:57:21.501Z,16.37
2019-04-29T20:59:50.567Z,14.50
2019-04-29T21:02:31.475Z,16.10
2019-04-29T21:04:52.069Z,16.40
2019-04-29T21:07:23.925Z,15.60
2019-04-29T21:09:55.783Z,14.63
2019-04-29T21:12:50.431Z,13.47
2019-04-29T21:15:27.321Z,13.43
2019-04-29T21:17:58.613Z,10.97
2019-04-29T21:20:28.609Z,12.77
2019-04-29T21:23:00.844Z,20.37
2019-04-29T21:25:30.739Z,16.57
2019-04-29T21:28:02.289Z,16.17
2019-04-29T21:30:37.887Z,13.40
2019-04-29T21:33:09.591Z,15.03
2019-04-29T21:35:45.485Z,13.57
2019-04-29T21:38:37.524Z,15.90
2019-04-29T21:41:11.079Z,16.30
2019-04-29T21:43:41.708Z,17.00
2019-04-29T21:46:11.459Z,14.87
2019-04-29T21:48:41.315Z,13.50
2019-04-29T21:51:12.414Z,14.07
2019-04-29T21:53:42.604Z,19.17
2019-04-29T21:56:12.408Z,15.43
2019-04-29T21:58:42.189Z,17.23
2019-04-29T22:01:20.353Z,13.90
2019-04-29T22:07:22.165Z,15.87
2019-04-29T22:09:51.848Z,14.23
2019-04-29T22:12:21.669Z,16.73
2019-04-29T22:14:53.691Z,17.27
2019-04-29T22:17:28.159Z,18.40
2019-04-29T22:19:57.467Z,12.87
2019-04-29T22:22:30.710Z,13.83
2019-04-29T22:25:05.951Z,18.83
2019-04-29T22:27:34.095Z,14.83
2019-04-29T22:30:02.119Z,16.83
2019-04-29T22:32:32.051Z,15.03
2019-04-29T22:35:01.864Z,17.10
2019-04-29T22:37:36.673Z,12.30
2019-04-29T22:40:04.528Z,15.03
2019-04-29T22:43:08.921Z,13.60
2019-04-29T22:45:33.787Z,17.93
2019-04-29T22:48:14.258Z,13.67
2019-04-29T22:50:38.003Z,16.13
2019-04-29T22:53:08.634Z,16.77
2019-04-29T22:55:38.717Z,14.93
2019-04-29T22:58:09.655Z,21.63
2019-04-29T23:00:39.572Z,17.10
2019-04-29T23:03:09.287Z,16.23
2019-04-29T23:05:39.082Z,18.30
2019-04-29T23:08:08.804Z,24.90
2019-04-29T23:10:38.510Z,13.87
2019-04-29T23:13:08.291Z,21.53
2019-04-29T23:15:38.245Z,18.37
2019-04-29T23:18:08.697Z,19.67
2019-04-29T23:20:59.602Z,20.43
2019-04-29T23:23:38.090Z,16.63
2019-04-29T23:26:05.600Z,17.23
2019-04-29T23:28:35.747Z,15.67
2019-04-29T23:31:05.745Z,23.80
2019-04-29T23:33:36.180Z,20.20
2019-04-29T23:36:09.590Z,16.60
2019-04-29T23:38:38.633Z,19.87
2019-04-29T23:41:09.834Z,16.73
2019-04-29T23:43:39.841Z,18.17
2019-04-29T23:46:09.750Z,17.20
2019-04-29T23:48:39.937Z,18.47
2019-04-29T23:51:09.988Z,17.20
2019-04-29T23:53:40.122Z,23.57
2019-04-29T23:56:10.110Z,17.40
2019-04-29T23:58:51.713Z,21.27
